Flight Track Log - Related Links

Times and Time Zones

All times are in EDT time to prevent confusion due to time zone crossing. See the UAL395 flight status page for this flight to view local times or setup timezone preferences in your user account.

Time Position Orientation Groundspeed Altitude Reporting Facility
EDT Latitude Longitude Course Direction KTS MPH feet Rate Location/Type
Fri 10:11:56 AM 45.5831 -122.5653 112° Southeast 158 182 600  Level Seattle Center
Fri 10:13:03 AM 45.5692 -122.4847 104° East 208 239 2,300 1,890 Climbing Seattle Center
Fri 10:14:00 AM 45.4176 -122.1821 138° Southeast  Level FlightAware Approximate
Fri 10:14:03 AM 45.5519 -122.3897 104° East 264 304 4,600  Level Seattle Center
Fri 10:14:38 AM 45.5472 -122.3478 99° East 238 274 5,600 2,250 Climbing Seattle Center
Fri 10:15:00 AM 45.3320 -122.0719 138° Southeast  Level FlightAware Approximate
Fri 10:15:39 AM 45.4872 -122.2736 139° Southeast 281 323 8,200  Level Seattle Center
Fri 10:16:00 AM 45.2500 -121.9596 90° East  Level FlightAware Approximate
Fri 10:16:40 AM 45.4247 -122.1931 138° Southeast 301 346 10,300  Level Seattle Center
Fri 10:17:00 AM 45.2002 -121.8172 112° Southeast  Level FlightAware Approximate
Fri 10:17:41 AM 45.3322 -122.0756 138° Southeast 375 432 11,600  Level Seattle Center
Fri 10:18:42 AM 45.2503 -121.9656 137° Southeast 404 465 13,600 1,820 Climbing Seattle Center
Fri 10:19:43 AM 45.2142 -121.8161 109° East 420 483 15,300 1,820 Climbing Seattle Center
Fri 10:20:44 AM 45.1708 -121.6558 111° Southeast 432 497 17,300 1,770 Climbing Seattle Center
Fri 10:21:45 AM 45.1297 -121.4931 110° East 438 504 18,900 1,525 Climbing Seattle Center
Fri 10:22:46 AM 45.0869 -121.3261 110° East 448 516 20,400 1,475 Climbing Seattle Center
Fri 10:23:47 AM 45.0417 -121.1558 111° Southeast 462 532 21,900 1,438 Climbing Seattle Center
Fri 10:24:47 AM 44.9961 -120.9853 111° Southeast 467 537 23,300 1,240 Climbing Seattle Center
Fri 10:25:48 AM 44.9500 -120.8119 111° Southeast 473 544 24,400 1,033 Climbing Seattle Center
Fri 10:26:49 AM 44.9031 -120.6364 111° Southeast 479 551 25,400 1,279 Climbing Seattle Center
Fri 10:27:50 AM 44.8453 -120.4242 111° Southeast 486 559 27,000 1,082 Climbing Seattle Center
Fri 10:28:51 AM 44.7972 -120.2500 111° Southeast 485 558 27,600 738 Climbing Seattle Center
Fri 10:29:52 AM 44.7494 -120.0733 111° Southeast 491 565 28,500 885 Climbing Seattle Center
Fri 10:30:53 AM 44.7008 -119.8956 111° Southeast 497 572 29,400 984 Climbing Seattle Center
Fri 10:31:54 AM 44.6508 -119.7175 111° Southeast 498 573 30,500 1,033 Climbing Seattle Center
Fri 10:32:55 AM 44.6000 -119.5428 112° Southeast 491 565 31,500 1,131 Climbing Seattle Center
Fri 10:33:56 AM 44.5492 -119.3689 112° Southeast 486 559 32,800 738 Climbing Seattle Center
Fri 10:34:57 AM 44.4975 -119.2000 113° Southeast 476 548 33,000 98 Climbing Seattle Center
Fri 10:35:58 AM 44.4358 -118.9944 113° Southeast 480 552 33,000 -49 Level Seattle Center
Fri 10:36:59 AM 44.3872 -118.8244 112° Southeast 473 544 32,900 -49 Descending Seattle Center
Fri 10:38:00 AM 44.3353 -118.6586 114° Southeast 468 539 32,900  Level Seattle Center
Fri 10:39:01 AM 44.2867 -118.4889 112° Southeast 472 543 32,900 49 Level Seattle Center
Fri 10:40:02 AM 44.2356 -118.3186 113° Southeast 474 545 33,000 49 Climbing Seattle Center
Fri 10:41:03 AM 44.1822 -118.1528 114° Southeast 473 544 33,000  Level Seattle Center
Fri 10:42:04 AM 44.1297 -117.9861 114° Southeast 471 542 33,000  Level Seattle Center
Fri 10:43:05 AM 44.0817 -117.8172 112° Southeast 471 542 33,000  Level Seattle Center
Fri 10:44:05 AM 44.0281 -117.6536 114° Southeast 467 537 33,000 -40 Level Seattle Center
Fri 10:45:36 AM 43.9406 -117.3889 115° Southeast 464 534 32,900  Descending Salt Lake Center
Fri 10:46:38 AM 43.8858 -117.2189 114° Southeast 464 534 33,000 48 Climbing Salt Lake Center
Fri 10:47:40 AM 43.8300 -117.0467 114° Southeast 469 540 33,000  Level Salt Lake Center
Fri 10:48:42 AM 43.7758 -116.8772 114° Southeast 463 533 33,000  Level Salt Lake Center
Fri 10:49:44 AM 43.7250 -116.7203 114° Southeast 463 533 33,000  Level Salt Lake Center
Fri 10:50:46 AM 43.6703 -116.5522 114° Southeast 462 532 33,000  Level Salt Lake Center
Fri 10:51:47 AM 43.6147 -116.3828 114° Southeast 463 533 33,000 -49 Level Salt Lake Center
Fri 10:52:49 AM 43.5606 -116.2142 114° Southeast 460 529 32,900  Descending Salt Lake Center
Fri 10:53:51 AM 43.5242 -116.0322 105° East 470 541 33,000 48 Climbing Salt Lake Center
Fri 10:54:53 AM 43.4939 -115.8603 104° East 478 550 33,000  Level Salt Lake Center
Fri 10:55:55 AM 43.4603 -115.6756 104° East 478 550 33,000  Level Salt Lake Center
Fri 10:56:57 AM 43.4272 -115.4906 104° East 479 551 33,000  Level Salt Lake Center
Fri 10:57:59 AM 43.3933 -115.3061 104° East 473 544 33,000  Level Salt Lake Center
Fri 10:59:02 AM 43.3600 -115.1219 104° East 478 550 33,000 384 Level Salt Lake Center
Fri 11:00:04 AM 43.3258 -114.9400 104° East 471 542 33,800 677 Climbing Salt Lake Center
Fri 11:01:06 AM 43.2950 -114.7747 104° East 468 539 34,400 532 Climbing Salt Lake Center
Fri 11:02:08 AM 43.2589 -114.5892 105° East 478 550 34,900 290 Climbing Salt Lake Center
Fri 11:03:10 AM 43.2242 -114.4072 105° East 476 548 35,000 48 Climbing Salt Lake Center
Fri 11:04:12 AM 43.1886 -114.2233 105° East 477 549 35,000  Level Salt Lake Center
Fri 11:05:14 AM 43.1569 -114.0636 105° East 477 549 35,000 -48 Level Salt Lake Center
Fri 11:06:16 AM 43.1161 -113.8558 105° East 474 545 34,900 -48 Descending Salt Lake Center
Fri 11:07:18 AM 43.0836 -113.6900 105° East 470 541 34,900 48 Level Salt Lake Center
Fri 11:08:20 AM 43.0497 -113.5233 105° East 473 544 35,000 48 Climbing Salt Lake Center
Fri 11:09:22 AM 43.0094 -113.3269 106° East 480 552 35,000  Level Salt Lake Center
Fri 11:10:24 AM 42.9750 -113.1603 106° East 479 551 35,000  Level Salt Lake Center
Fri 11:11:26 AM 42.9361 -112.9692 105° East 471 542 35,000  Level Salt Lake Center
Fri 11:12:28 AM 42.9014 -112.8022 106° East 478 550 35,000 -48 Level Salt Lake Center
Fri 11:13:30 AM 42.8589 -112.6133 107° East 470 541 34,900  Descending Salt Lake Center
Fri 11:14:32 AM 42.8064 -112.4592 115° Southeast 468 539 35,000 48 Climbing Salt Lake Center
Fri 11:15:34 AM 42.7467 -112.2806 114° Southeast 464 534 35,000  Level Salt Lake Center
Fri 11:16:36 AM 42.6958 -112.1292 115° Southeast 466 536 35,000  Level Salt Lake Center
Fri 11:17:38 AM 42.6425 -111.9706 115° Southeast 463 533 35,000  Level Salt Lake Center
Fri 11:18:40 AM 42.5894 -111.8139 115° Southeast 459 528 35,000 -48 Level Salt Lake Center
Fri 11:19:42 AM 42.5247 -111.6269 115° Southeast 457 526 34,900 -48 Descending Salt Lake Center
Fri 11:20:44 AM 42.4717 -111.4683 114° Southeast 461 531 34,900 48 Level Salt Lake Center
Fri 11:21:46 AM 42.4167 -111.3117 115° Southeast 462 532 35,000 48 Climbing Salt Lake Center
Fri 11:22:48 AM 42.3617 -111.1522 115° Southeast 467 537 35,000  Level Salt Lake Center
Fri 11:23:50 AM 42.3069 -110.9950 115° Southeast 465 535 35,000  Level Salt Lake Center
Fri 11:24:52 AM 42.2458 -110.8200 115° Southeast 460 529 35,000 -48 Level Salt Lake Center
Fri 11:25:55 AM 42.1936 -110.6739 116° Southeast 453 521 34,900 -48 Descending Salt Lake Center
Fri 11:26:57 AM 42.1339 -110.5019 115° Southeast 454 522 34,900  Level Salt Lake Center
Fri 11:27:59 AM 42.0811 -110.3561 116° Southeast 455 524 34,900 48 Level Salt Lake Center
Fri 11:29:01 AM 42.0194 -110.1844 116° Southeast 457 526 35,000 48 Climbing Salt Lake Center
Fri 11:30:03 AM 41.9647 -110.0375 117° Southeast 458 527 35,000  Level Salt Lake Center
Fri 11:31:05 AM 41.9028 -109.8636 116° Southeast 462 532 35,000  Level Salt Lake Center
Fri 11:32:07 AM 41.8483 -109.7147 116° Southeast 464 534 35,000  Level Salt Lake Center
Fri 11:33:09 AM 41.7844 -109.5414 116° Southeast 464 534 35,000 -48 Level Salt Lake Center
Fri 11:34:11 AM 41.7311 -109.3942 116° Southeast 461 531 34,900  Descending Salt Lake Center
Fri 11:35:13 AM 41.6769 -109.2447 116° Southeast 463 533 35,000 48 Climbing Salt Lake Center
Fri 11:36:15 AM 41.6119 -109.0692 116° Southeast 465 535 35,000  Level Salt Lake Center
Fri 11:37:17 AM 41.5536 -108.9211 118° Southeast 463 533 35,000 -48 Level Salt Lake Center
Fri 11:38:19 AM 41.4844 -108.7514 119° Southeast 461 531 34,900 -48 Descending Salt Lake Center
Fri 11:39:21 AM 41.4256 -108.6100 119° Southeast 458 527 34,900 48 Level Salt Lake Center
Fri 11:40:23 AM 41.3664 -108.4664 119° Southeast 460 529 35,000 48 Climbing Salt Lake Center
Fri 11:41:25 AM 41.2978 -108.2992 119° Southeast 459 528 35,000  Level Salt Lake Center
Fri 11:42:27 AM 41.2383 -108.1553 119° Southeast 463 533 35,000  Level Salt Lake Center
Fri 11:43:37 AM 41.1586 -107.9661 119° Southeast 459 528 35,000  Level Denver Center
Fri 11:44:39 AM 41.0997 -107.8264 119° Southeast 454 522 35,000  Level Denver Center
Fri 11:45:41 AM 41.0311 -107.6628 119° Southeast 453 521 35,000 -48 Level Denver Center
Fri 11:46:43 AM 40.9711 -107.5239 120° Southeast 454 522 34,900  Descending Denver Center
Fri 11:47:46 AM 40.9028 -107.3614 119° Southeast 454 522 35,000 48 Climbing Denver Center
Fri 11:48:48 AM 40.8425 -107.2222 120° Southeast 455 524 35,000  Level Denver Center
Fri 11:49:50 AM 40.7731 -107.0592 119° Southeast 457 526 35,000  Level Denver Center
Fri 11:50:52 AM 40.7111 -106.9178 120° Southeast 456 525 35,000  Level Denver Center
Fri 11:51:54 AM 40.6478 -106.7708 120° Southeast 458 527 35,000  Level Denver Center
Fri 11:52:56 AM 40.5847 -106.6269 120° Southeast 455 524 35,000  Level Denver Center
Fri 11:53:58 AM 40.5219 -106.4836 120° Southeast 453 521 35,000 -48 Level Denver Center
Fri 11:55:00 AM 40.4522 -106.3233 120° Southeast 452 520 34,900  Descending Denver Center
Fri 11:56:02 AM 40.3936 -106.1878 120° Southeast 449 517 35,000 48 Climbing Denver Center
Fri 11:57:04 AM 40.3217 -106.0231 120° Southeast 452 520 35,000  Level Denver Center
Fri 11:58:06 AM 40.2586 -105.8808 120° Southeast 452 520 35,000 -48 Level Denver Center
Fri 11:59:09 AM 40.1961 -105.7353 119° Southeast 453 521 34,900  Descending Denver Center
Fri 12:00:10 PM 40.1319 -105.5931 121° Southeast 450 518 35,000 49 Climbing Denver Center
Fri 12:01:12 PM 40.0675 -105.4511 121° Southeast 455 524 35,000  Level Denver Center
Fri 12:02:14 PM 40.0031 -105.3094 121° Southeast 455 524 35,000  Level Denver Center
Fri 12:03:17 PM 39.9272 -105.1397 120° Southeast 450 518 35,000  Level Denver Center
Fri 12:04:19 PM 39.8611 -104.9958 121° Southeast 460 529 35,000  Level Denver Center
Fri 12:05:21 PM 39.7947 -104.8536 121° Southeast 470 541 35,000  Level Denver Center
Fri 12:06:23 PM 39.7358 -104.7128 119° Southeast 444 511 35,000  Level Denver Center
Fri 12:07:25 PM 39.6575 -104.5708 126° Southeast 458 527 35,000  Level Denver Center
Fri 12:08:27 PM 39.5653 -104.4525 135° Southeast 442 509 35,000 -48 Level Denver Center
Fri 12:09:29 PM 39.4769 -104.3367 135° Southeast 443 510 34,900 -48 Descending Denver Center
Fri 12:10:31 PM 39.3894 -104.2225 135° Southeast 449 517 34,900 48 Level Denver Center
Fri 12:11:33 PM 39.2861 -104.0850 134° Southeast 435 501 35,000 48 Climbing Denver Center
Fri 12:12:35 PM 39.1978 -103.9708 135° Southeast 448 516 35,000  Level Denver Center
Fri 12:13:37 PM 39.1100 -103.8553 134° Southeast 452 520 35,000  Level Denver Center
Fri 12:14:39 PM 39.0211 -103.7406 135° Southeast 454 522 35,000  Level Denver Center
Fri 12:15:41 PM 38.9325 -103.6253 135° Southeast 454 522 35,000  Level Denver Center
Fri 12:16:43 PM 38.8378 -103.5017 135° Southeast 454 522 35,000  Level Denver Center
Fri 12:17:46 PM 38.7369 -103.3731 135° Southeast 453 521 35,000 -48 Level Denver Center
Fri 12:18:48 PM 38.6492 -103.2594 135° Southeast 452 520 34,900 -48 Descending Denver Center
Fri 12:19:50 PM 38.5564 -103.1414 109° East 450 518 34,900 48 Level Denver Center
Fri 12:20:52 PM 38.4722 -103.0331 135° Southeast 450 518 35,000 48 Climbing Denver Center
Fri 12:21:54 PM 38.3708 -102.9072 136° Southeast 453 521 35,000  Level Denver Center
Fri 12:22:56 PM 38.2847 -102.7986 135° Southeast 455 524 35,000  Level Denver Center
Fri 12:23:58 PM 38.1989 -102.6900 135° Southeast 455 524 35,000  Level Denver Center
Fri 12:25:00 PM 38.0897 -102.5756 140° Southeast 456 525 35,000  Level Denver Center
Fri 12:26:02 PM 37.9903 -102.4728 141° Southeast 455 524 35,000  Level Denver Center
Fri 12:27:04 PM 37.8869 -102.3667 141° Southeast 453 521 35,000 -48 Level Denver Center
Fri 12:28:06 PM 37.7808 -102.2558 140° Southeast 446 513 34,900 -48 Descending Denver Center
Fri 12:29:08 PM 37.6900 -102.1619 141° Southeast 443 510 34,900 56 Level Denver Center
Fri 12:29:53 PM 37.6281 -102.1000 142° Southeast 444 511 35,000 57 Climbing Kansas City Center
Fri 12:30:54 PM 37.5228 -101.9925 141° Southeast 439 505 35,000  Level Kansas City Center
Fri 12:31:55 PM 37.4308 -101.8989 141° Southeast 442 509 35,000  Level Kansas City Center
Fri 12:32:58 PM 37.3236 -101.7903 141° Southeast 444 511 35,000  Level Kansas City Center
Fri 12:34:02 PM 37.2322 -101.6967 141° Southeast 445 512 35,000  Level Kansas City Center
Fri 12:35:03 PM 37.1236 -101.5886 142° Southeast 447 514 35,000  Level Kansas City Center
Fri 12:36:03 PM 37.0317 -101.4964 141° Southeast 446 513 35,000  Level Kansas City Center
Fri 12:37:07 PM 36.9247 -101.3886 141° Southeast 444 511 35,000 -48 Level Kansas City Center
Fri 12:38:08 PM 36.8331 -101.2967 141° Southeast 443 510 34,900  Descending Kansas City Center
Fri 12:39:09 PM 36.7253 -101.1897 141° Southeast 443 510 35,000 48 Climbing Kansas City Center
Fri 12:40:14 PM 36.6336 -101.0986 141° Southeast 442 509 35,000  Level Kansas City Center
Fri 12:41:15 PM 36.5267 -100.9933 142° Southeast 441 507 35,000  Level Kansas City Center
Fri 12:42:16 PM 36.4317 -100.9003 142° Southeast 442 509 35,000  Level Kansas City Center
Fri 12:43:17 PM 36.3353 -100.8044 141° Southeast 443 510 35,000  Level Kansas City Center
Fri 12:44:22 PM 36.2375 -100.7094 142° Southeast 444 511 35,000  Level Kansas City Center
Fri 12:45:23 PM 36.1231 -100.5992 142° Southeast 441 507 35,000  Level Kansas City Center
Fri 12:46:26 PM 36.0261 -100.5044 142° Southeast 442 509 35,000 -49 Level Kansas City Center
Fri 12:47:26 PM 35.9289 -100.4114 142° Southeast 443 510 34,900 -48 Descending Kansas City Center
Fri 12:48:30 PM 35.8325 -100.3189 142° Southeast 440 506 34,900 48 Level Kansas City Center
Fri 12:49:30 PM 35.7361 -100.2250 142° Southeast 442 509 35,000 48 Climbing Kansas City Center
Fri 12:50:35 PM 35.6378 -100.1319 142° Southeast 444 511 35,000  Level Kansas City Center
Fri 12:51:35 PM 35.5200 -100.0189 142° Southeast 447 514 35,000  Level Kansas City Center
Fri 12:52:39 PM 35.4219 -99.9269 143° Southeast 446 513 35,000  Level Kansas City Center
Fri 12:53:39 PM 35.3239 -99.8322 142° Southeast 448 516 35,000  Level Kansas City Center
Fri 12:55:01 PM 35.1853 -99.7033 143° Southeast 447 514 35,000  Level Albuquerque Center
Fri 12:56:03 PM 35.0858 -99.6119 143° Southeast 447 514 35,000  Level Albuquerque Center
Fri 12:57:00 PM 34.9797 -99.5167 144° Southeast 448 516 35,000  Level Fort Worth Center
Fri 12:58:00 PM 34.8789 -99.4258 144° Southeast 448 516 35,000  Level Fort Worth Center
Fri 12:59:00 PM 34.7803 -99.3325 142° Southeast 448 516 35,000  Level Fort Worth Center
Fri 01:00:00 PM 34.6794 -99.2417 143° Southeast 448 516 35,000  Level Fort Worth Center
Fri 01:01:01 PM 34.5806 -99.1489 142° Southeast 448 516 35,000  Level Fort Worth Center
Fri 01:02:01 PM 34.4939 -99.0814 147° Southeast 443 510 35,000  Level Fort Worth Center
Fri 01:03:00 PM 34.3950 -98.9914 143° Southeast 436 502 35,000  Level Fort Worth Center
Fri 01:04:00 PM 34.2958 -98.9042 144° Southeast 445 512 35,000  Level Fort Worth Center
Fri 01:05:01 PM 34.1947 -98.8147 144° Southeast 451 519 35,000  Level Fort Worth Center
Fri 01:06:01 PM 34.0956 -98.7228 142° Southeast 446 513 35,000  Level Fort Worth Center
Fri 01:07:00 PM 33.9961 -98.6361 144° Southeast 446 513 35,000  Level Fort Worth Center
Fri 01:08:01 PM 33.9011 -98.5469 142° Southeast 441 507 35,000 -50 Level Fort Worth Center
Fri 01:09:00 PM 33.8017 -98.4608 144° Southeast 441 507 34,900  Descending Fort Worth Center
Fri 01:10:01 PM 33.7042 -98.3722 143° Southeast 441 507 35,000 50 Climbing Fort Worth Center
Fri 01:11:01 PM 33.6025 -98.2864 145° Southeast 446 513 35,000  Level Fort Worth Center
Fri 01:12:00 PM 33.4906 -98.1881 144° Southeast 459 528 35,000  Level Fort Worth Center
Fri 01:13:01 PM 33.4033 -98.1128 144° Southeast 442 509 35,000  Level Fort Worth Center
Fri 01:14:01 PM 33.3036 -98.0275 144° Southeast 442 509 35,000  Level Fort Worth Center
Fri 01:15:00 PM 33.2039 -97.9397 144° Southeast 447 514 35,000  Level Fort Worth Center
Fri 01:16:01 PM 33.1039 -97.8550 145° Southeast 447 514 35,000  Level Fort Worth Center
Fri 01:17:01 PM 33.0061 -97.7700 144° Southeast 447 514 35,000  Level Fort Worth Center
Fri 01:18:01 PM 32.8936 -97.6758 145° Southeast 447 514 35,000  Level Fort Worth Center
Fri 01:19:01 PM 32.7936 -97.5939 145° Southeast 447 514 35,000  Level Fort Worth Center
Fri 01:20:01 PM 32.6933 -97.5047 143° Southeast 447 514 35,000  Level Fort Worth Center
Fri 01:21:01 PM 32.5911 -97.4233 146° Southeast 447 514 35,000  Level Fort Worth Center
Fri 01:22:01 PM 32.4847 -97.3444 148° Southeast 447 514 35,000  Level Fort Worth Center
Fri 01:23:01 PM 32.3844 -97.2706 148° Southeast 442 509 35,000 -504 Level Fort Worth Center
Fri 01:24:00 PM 32.2883 -97.1997 148° Southeast 424 488 34,000 -950 Descending Fort Worth Center
Fri 01:25:01 PM 32.1900 -97.1261 148° Southeast 418 481 33,100 -942 Descending Fort Worth Center
Fri 01:26:01 PM 32.0875 -97.0506 148° Southeast 418 481 32,100 -1,000 Descending Fort Worth Center
Fri 01:27:01 PM 31.9786 -96.9725 149° Southeast 434 499 31,100 -994 Descending Fort Worth Center
Fri 01:28:44 PM 31.8003 -96.8381 147° Southeast 461 531 29,400 -764 Descending Houston Center
Fri 01:29:46 PM 31.6881 -96.7569 148° Southeast 468 539 29,000 -194 Descending Houston Center
Fri 01:30:48 PM 31.5764 -96.6767 149° Southeast 466 536 29,000 -48 Level Houston Center
Fri 01:31:50 PM 31.4647 -96.5964 148° Southeast 464 534 28,900 -532 Descending Houston Center
Fri 01:32:52 PM 31.3539 -96.5142 148° Southeast 465 535 27,900 -1,065 Descending Houston Center
Fri 01:33:54 PM 31.2239 -96.4175 148° Southeast 468 539 26,700 -1,065 Descending Houston Center
Fri 01:34:56 PM 31.1097 -96.3353 148° Southeast 474 545 25,700 -1,258 Descending Houston Center
Fri 01:35:58 PM 30.9989 -96.2550 148° Southeast 466 536 24,100 -1,887 Descending Houston Center
Fri 01:37:00 PM 30.8972 -96.1808 148° Southeast 437 503 21,800 -2,371 Descending Houston Center
Fri 01:38:02 PM 30.7992 -96.1106 148° Southeast 415 478 19,200 -3,145 Descending Houston Center
Fri 01:39:04 PM 30.6969 -96.0386 149° Southeast 389 448 15,300 -3,559 Descending Houston Center
Fri 01:40:00 PM 30.6189 -95.9819 148° Southeast 366 421 12,200 -2,565 Descending Houston Center
Fri 01:41:08 PM 30.5283 -95.9158 148° Southeast 354 407 10,000 -1,163 Descending Houston Center
Fri 01:42:09 PM 30.4558 -95.8639 148° Southeast 313 360 9,700 -626 Descending Houston Center
Fri 01:43:03 PM 30.3786 -95.8500 171° South 293 337 8,800 -983 Descending Houston Center
Fri 01:44:05 PM 30.2947 -95.8500 180° South 292 336 7,800 -1,073 Descending Houston Center
Fri 01:45:06 PM 30.2106 -95.8475 179° South 289 333 6,600 -1,318 Descending Houston Center
Fri 01:46:17 PM 30.1256 -95.8425 177° South 283 326 4,900 -1,359 Descending Houston Center
Fri 01:47:14 PM 30.0728 -95.7864 137° Southeast 266 306 3,700 -1,018 Descending Houston Center
Fri 01:48:09 PM 30.0294 -95.7214 128° Southeast 266 306 3,000 -344 Descending Houston Center
Fri 01:49:16 PM 30.0075 -95.6419 108° East 220 253 3,000  Level Houston Center
Fri 01:50:18 PM 30.0061 -95.5769 91° East 184 212 3,000 -146 Level Houston Center
Fri 01:51:19 PM 30.0067 -95.5142 89° East 190 219 2,700 -639 Descending Houston Center
Fri 01:52:20 PM 30.0075 -95.4539 89° East 184 212 1,700 -879 Descending Houston Center
Fri 01:53:15 PM 30.0075 -95.4081 90° East 138 159 1,000 -764 Descending Houston Center

Login

Don't have an account? Register now (free) for customized features, flight alerts, and more!